createdAt,value
2018-10-21T00:00:04.899Z,995.92
2018-10-21T00:01:04.924Z,995.92
2018-10-21T00:02:04.955Z,995.93
2018-10-21T00:03:05.050Z,995.92
2018-10-21T00:04:05.007Z,995.94
2018-10-21T00:05:05.032Z,995.92
2018-10-21T00:06:05.064Z,995.92
2018-10-21T00:07:05.088Z,995.93
2018-10-21T00:08:05.114Z,995.92
2018-10-21T00:09:05.172Z,995.93
2018-10-21T00:10:05.169Z,995.95
2018-10-21T00:11:05.200Z,995.96
2018-10-21T00:12:05.222Z,995.96
2018-10-21T00:13:05.249Z,995.98
2018-10-21T00:14:05.276Z,995.96
2018-10-21T00:15:05.363Z,995.97
2018-10-21T00:16:05.327Z,995.95
2018-10-21T00:17:05.355Z,995.95
2018-10-21T00:18:05.383Z,995.94
2018-10-21T00:19:05.408Z,995.96
2018-10-21T00:20:05.434Z,995.95
2018-10-21T00:21:05.506Z,995.94
2018-10-21T00:22:05.489Z,995.94
2018-10-21T00:23:05.513Z,996.02
2018-10-21T00:24:05.546Z,996.02
2018-10-21T00:25:05.569Z,995.96
2018-10-21T00:26:05.597Z,995.94
2018-10-21T00:27:05.662Z,995.94
2018-10-21T00:28:05.649Z,995.95
2018-10-21T00:29:05.676Z,995.94
2018-10-21T00:30:05.705Z,995.94
2018-10-21T00:31:05.729Z,995.95
2018-10-21T00:32:05.757Z,995.99
2018-10-21T00:33:05.821Z,995.93
2018-10-21T00:34:05.809Z,995.99
2018-10-21T00:35:05.835Z,995.9
2018-10-21T00:36:05.868Z,995.94
2018-10-21T00:37:05.891Z,995.95
2018-10-21T00:38:05.918Z,995.93
2018-10-21T00:39:05.953Z,995.94
2018-10-21T00:40:05.971Z,995.87
2018-10-21T00:41:05.997Z,995.88
2018-10-21T00:42:06.027Z,995.87
2018-10-21T00:43:06.050Z,995.89
2018-10-21T00:44:06.082Z,995.89
2018-10-21T00:45:06.169Z,995.87
2018-10-21T00:46:06.131Z,995.83
2018-10-21T00:47:06.158Z,995.86
2018-10-21T00:48:06.186Z,995.89
2018-10-21T00:49:06.211Z,995.93
2018-10-21T00:50:06.239Z,995.92
2018-10-21T00:51:06.321Z,995.9
2018-10-21T00:52:06.291Z,995.92
2018-10-21T00:53:06.319Z,995.93
2018-10-21T00:54:06.346Z,995.96
2018-10-21T00:55:06.376Z,995.92
2018-10-21T00:56:06.401Z,995.94
2018-10-21T00:57:06.466Z,995.92
2018-10-21T00:58:06.456Z,995.96
2018-10-21T00:59:06.482Z,995.95
2018-10-21T01:00:06.510Z,995.92
2018-10-21T01:01:06.533Z,995.94
2018-10-21T01:02:06.560Z,995.93
2018-10-21T01:03:06.632Z,995.96
2018-10-21T01:04:06.682Z,995.93
2018-10-21T01:05:06.641Z,995.95
2018-10-21T01:06:06.669Z,995.91
2018-10-21T01:07:06.693Z,995.93
2018-10-21T01:08:06.724Z,995.91
2018-10-21T01:09:06.792Z,995.91
2018-10-21T01:10:06.775Z,995.91
2018-10-21T01:11:06.803Z,995.94
2018-10-21T01:12:06.829Z,995.95
2018-10-21T01:13:06.854Z,995.95
2018-10-21T01:14:06.883Z,995.95
2018-10-21T01:15:06.915Z,995.95
2018-10-21T01:16:06.934Z,995.96
2018-10-21T01:17:06.964Z,995.96
2018-10-21T01:18:06.988Z,995.93
2018-10-21T01:19:07.017Z,995.96
2018-10-21T01:20:07.048Z,995.91
2018-10-21T01:21:07.124Z,995.89
2018-10-21T01:22:07.096Z,995.85
2018-10-21T01:23:07.123Z,995.82
2018-10-21T01:24:07.151Z,995.82
2018-10-21T01:25:07.176Z,995.83
2018-10-21T01:26:07.209Z,995.83
2018-10-21T01:27:07.257Z,995.85
2018-10-21T01:28:07.261Z,995.84
2018-10-21T01:29:07.284Z,995.84
2018-10-21T01:30:07.309Z,995.84
2018-10-21T01:31:07.339Z,995.84
2018-10-21T01:32:07.363Z,995.87
2018-10-21T01:33:07.396Z,995.9
2018-10-21T01:34:07.418Z,995.87
2018-10-21T01:35:07.451Z,995.82
2018-10-21T01:36:07.504Z,995.8
2018-10-21T01:37:07.664Z,995.79
2018-10-21T01:38:07.564Z,995.84
2018-10-21T01:39:07.630Z,995.8
2018-10-21T01:40:07.581Z,995.79
2018-10-21T01:41:07.608Z,995.84
2018-10-21T01:42:07.628Z,995.85
2018-10-21T01:43:07.662Z,995.87
2018-10-21T01:44:07.687Z,995.88
2018-10-21T01:45:07.724Z,995.9
2018-10-21T01:46:07.738Z,995.94
2018-10-21T01:47:07.764Z,995.94
2018-10-21T01:48:07.787Z,995.95
2018-10-21T01:49:07.816Z,995.9
2018-10-21T01:50:07.843Z,995.87
2018-10-21T01:51:07.951Z,995.9
2018-10-21T01:52:07.901Z,995.9
2018-10-21T01:53:07.922Z,995.93
2018-10-21T01:54:07.950Z,995.93
2018-10-21T01:55:07.978Z,995.99
2018-10-21T01:56:08.003Z,995.95
2018-10-21T01:57:08.098Z,995.97
2018-10-21T01:58:08.060Z,995.99
2018-10-21T01:59:08.082Z,996.02
2018-10-21T02:00:08.111Z,996
2018-10-21T02:01:08.138Z,996
2018-10-21T02:02:08.162Z,995.98
2018-10-21T02:03:08.260Z,995.95
2018-10-21T02:04:08.215Z,995.95
2018-10-21T02:05:08.243Z,995.97
2018-10-21T02:06:08.269Z,995.99
2018-10-21T02:07:08.296Z,996
2018-10-21T02:08:08.323Z,995.99
2018-10-21T02:09:08.402Z,996
2018-10-21T02:10:08.377Z,995.96
2018-10-21T02:11:08.402Z,995.99
2018-10-21T02:12:08.430Z,995.98
2018-10-21T02:13:08.474Z,995.99
2018-10-21T02:14:08.486Z,996.03
2018-10-21T02:15:08.564Z,996.03
2018-10-21T02:16:08.535Z,996.06
2018-10-21T02:17:08.562Z,996.06
2018-10-21T02:18:08.590Z,996.05
2018-10-21T02:19:08.615Z,996.07
2018-10-21T02:20:08.641Z,996.09
2018-10-21T02:21:08.746Z,996.12
2018-10-21T02:22:08.695Z,996.12
2018-10-21T02:23:08.723Z,996.14
2018-10-21T02:24:08.748Z,996.14
2018-10-21T02:25:08.776Z,996.13
2018-10-21T02:26:08.861Z,996.18
2018-10-21T02:27:08.882Z,996.1
2018-10-21T02:28:08.864Z,996.15
2018-10-21T02:29:08.883Z,996.11
2018-10-21T02:30:08.909Z,996.19
2018-10-21T02:31:08.936Z,996.18
2018-10-21T02:32:08.962Z,996.17
2018-10-21T02:33:09.143Z,996.23
2018-10-21T02:34:09.017Z,996.2
2018-10-21T02:35:09.040Z,996.2
2018-10-21T02:36:09.068Z,996.22
2018-10-21T02:37:09.095Z,996.18
2018-10-21T02:38:09.126Z,996.2
2018-10-21T02:39:09.266Z,996.15
2018-10-21T02:40:09.174Z,996.16
2018-10-21T02:41:09.204Z,996.1
2018-10-21T02:42:09.227Z,996.06
2018-10-21T02:43:09.256Z,996.05
2018-10-21T02:44:09.286Z,996
2018-10-21T02:45:09.396Z,996
2018-10-21T02:46:09.341Z,995.98
2018-10-21T02:47:09.363Z,996.02
2018-10-21T02:48:09.388Z,996.04
2018-10-21T02:49:09.415Z,996.03
2018-10-21T02:50:09.440Z,996.02
2018-10-21T02:51:09.562Z,996.02
2018-10-21T02:52:09.512Z,996.04
2018-10-21T02:53:09.519Z,996.01
2018-10-21T02:54:09.548Z,995.99
2018-10-21T02:55:09.574Z,995.93
2018-10-21T02:56:09.602Z,995.91
2018-10-21T02:57:09.656Z,995.94
2018-10-21T02:58:09.655Z,995.95
2018-10-21T02:59:09.682Z,995.96
2018-10-21T03:00:09.708Z,995.94
2018-10-21T03:01:09.734Z,995.96
2018-10-21T03:02:09.774Z,995.96
2018-10-21T03:03:09.842Z,995.95
2018-10-21T03:04:09.815Z,995.93
2018-10-21T03:05:09.841Z,995.92
2018-10-21T03:06:09.874Z,995.88
2018-10-21T03:07:09.893Z,995.88
2018-10-21T03:08:09.925Z,995.89
2018-10-21T03:09:09.981Z,995.86
2018-10-21T03:10:09.975Z,995.83
2018-10-21T03:11:10.001Z,995.84
2018-10-21T03:12:10.028Z,995.82
2018-10-21T03:13:10.055Z,995.83
2018-10-21T03:14:10.081Z,995.84
2018-10-21T03:15:10.231Z,995.86
2018-10-21T03:16:10.134Z,995.8
2018-10-21T03:17:10.165Z,995.77
2018-10-21T03:18:10.250Z,995.76
2018-10-21T03:19:10.213Z,995.76
2018-10-21T03:20:10.242Z,995.72
2018-10-21T03:21:10.354Z,995.74
2018-10-21T03:22:10.297Z,995.7
2018-10-21T03:23:10.328Z,995.66
2018-10-21T03:24:10.350Z,995.65
2018-10-21T03:25:10.375Z,995.63
2018-10-21T03:26:10.400Z,995.61
2018-10-21T03:27:10.512Z,995.61
2018-10-21T03:28:10.454Z,995.58
2018-10-21T03:29:10.480Z,995.59
2018-10-21T03:30:10.508Z,995.57
2018-10-21T03:31:10.535Z,995.56
2018-10-21T03:32:10.561Z,995.59
2018-10-21T03:33:10.720Z,995.57
2018-10-21T03:34:10.632Z,995.59
2018-10-21T03:35:10.640Z,995.59
2018-10-21T03:36:10.671Z,995.58
2018-10-21T03:37:10.694Z,995.55
2018-10-21T03:38:10.718Z,995.58
2018-10-21T03:39:10.748Z,995.57
2018-10-21T03:40:10.826Z,995.55
2018-10-21T03:41:10.800Z,995.57
2018-10-21T03:42:10.825Z,995.59
2018-10-21T03:43:10.852Z,995.56
2018-10-21T03:44:10.879Z,995.55
2018-10-21T03:45:17.172Z,995.56
2018-10-21T03:46:10.972Z,995.5
2018-10-21T03:47:10.959Z,995.51
2018-10-21T03:48:10.984Z,995.52
2018-10-21T03:49:11.018Z,995.51
2018-10-21T03:50:11.039Z,995.51
2018-10-21T03:51:11.063Z,995.47
2018-10-21T03:52:11.218Z,995.47
2018-10-21T03:53:11.125Z,995.45
2018-10-21T03:54:11.147Z,995.45
2018-10-21T03:55:11.169Z,995.38
2018-10-21T03:56:11.196Z,995.36
2018-10-21T03:57:11.226Z,995.33
2018-10-21T03:58:11.323Z,995.34
2018-10-21T03:59:11.278Z,995.35
2018-10-21T04:00:11.304Z,995.33
2018-10-21T04:01:11.332Z,995.3
2018-10-21T04:02:11.359Z,995.31
2018-10-21T04:03:11.384Z,995.27
2018-10-21T04:04:11.416Z,995.28
2018-10-21T04:05:11.440Z,995.2
2018-10-21T04:06:11.465Z,995.21
2018-10-21T04:07:11.490Z,995.17
2018-10-21T04:08:11.516Z,995.17
2018-10-21T04:09:11.546Z,995.15
2018-10-21T04:10:11.608Z,995.15
2018-10-21T04:11:11.604Z,995.14
2018-10-21T04:12:11.626Z,995.18
2018-10-21T04:13:11.653Z,995.18
2018-10-21T04:15:11.705Z,995.19
2018-10-21T04:16:11.847Z,995.18
2018-10-21T04:17:11.759Z,995.19
2018-10-21T04:18:11.782Z,995.19
2018-10-21T04:19:11.810Z,995.2
2018-10-21T04:20:11.838Z,995.24
2018-10-21T04:21:11.864Z,995.23
2018-10-21T04:22:11.962Z,995.23
2018-10-21T04:23:11.918Z,995.23
2018-10-21T04:24:11.945Z,995.19
2018-10-21T04:25:11.971Z,995.22
2018-10-21T04:26:12.001Z,995.23
2018-10-21T04:27:12.024Z,995.22
2018-10-21T04:28:12.133Z,995.17
2018-10-21T04:29:12.081Z,995.18
2018-10-21T04:30:12.109Z,995.12
2018-10-21T04:31:12.134Z,995.11
2018-10-21T04:32:12.164Z,995.15
2018-10-21T04:33:12.187Z,995.14
2018-10-21T04:34:12.388Z,995.14
2018-10-21T04:35:12.249Z,995.14
2018-10-21T04:36:12.267Z,995.18
2018-10-21T04:37:12.314Z,995.12
2018-10-21T04:38:12.321Z,995.12
2018-10-21T04:39:12.350Z,995.12
2018-10-21T04:40:12.405Z,995.11
2018-10-21T04:41:12.401Z,995.13
2018-10-21T04:42:12.429Z,995.13
2018-10-21T04:43:12.455Z,995.11
2018-10-21T04:44:12.481Z,995.11
2018-10-21T04:45:12.512Z,995.11
2018-10-21T04:46:12.592Z,995.11
2018-10-21T04:47:12.764Z,995.08
2018-10-21T04:48:12.593Z,995.11
2018-10-21T04:49:12.665Z,995.05
2018-10-21T04:50:12.643Z,995.06
2018-10-21T04:51:12.674Z,995.07
2018-10-21T04:52:12.783Z,995.05
2018-10-21T04:53:12.725Z,995.09
2018-10-21T04:54:12.750Z,995.1
2018-10-21T04:55:12.778Z,995.11
2018-10-21T04:56:12.805Z,995.07
2018-10-21T04:57:12.831Z,995.1
2018-10-21T04:58:12.965Z,995.09
2018-10-21T04:59:12.884Z,995.09
2018-10-21T05:00:12.914Z,995.1
2018-10-21T05:01:12.937Z,995.13
2018-10-21T05:02:12.966Z,995.11
2018-10-21T05:03:12.994Z,995.12
2018-10-21T05:04:13.098Z,995.13
2018-10-21T05:05:13.045Z,995.12
2018-10-21T05:06:13.072Z,995.11
2018-10-21T05:07:13.101Z,995.12
2018-10-21T05:08:13.127Z,995.13
2018-10-21T05:09:13.153Z,995.14
2018-10-21T05:10:13.248Z,995.14
2018-10-21T05:11:13.208Z,995.1
2018-10-21T05:12:13.237Z,995.12
2018-10-21T05:13:13.260Z,995.17
2018-10-21T05:14:13.288Z,995.17
2018-10-21T05:15:13.323Z,995.24
2018-10-21T05:16:13.384Z,995.28
2018-10-21T05:17:13.371Z,995.32
2018-10-21T05:18:13.394Z,995.28
2018-10-21T05:19:13.425Z,995.35
2018-10-21T05:20:13.458Z,995.3
2018-10-21T05:21:13.475Z,995.32
2018-10-21T05:22:13.575Z,995.33
2018-10-21T05:23:13.529Z,995.36
2018-10-21T05:24:13.556Z,995.35
2018-10-21T05:25:13.583Z,995.38
2018-10-21T05:26:13.610Z,995.36
2018-10-21T05:27:13.637Z,995.42
2018-10-21T05:28:13.747Z,995.39
2018-10-21T05:29:13.690Z,995.44
2018-10-21T05:30:13.718Z,995.44
2018-10-21T05:31:13.743Z,995.43
2018-10-21T05:32:13.772Z,995.44
2018-10-21T05:33:13.798Z,995.42
2018-10-21T05:34:13.896Z,995.42
2018-10-21T05:35:13.852Z,995.44
2018-10-21T05:36:13.879Z,995.43
2018-10-21T05:37:13.905Z,995.48
2018-10-21T05:38:13.932Z,995.43
2018-10-21T05:39:13.961Z,995.47
2018-10-21T05:40:14.021Z,995.46
2018-10-21T05:41:14.017Z,995.46
2018-10-21T05:42:14.038Z,995.42
2018-10-21T05:43:14.069Z,995.38
2018-10-21T05:44:14.095Z,995.39
2018-10-21T05:45:14.127Z,995.41
2018-10-21T05:46:14.199Z,995.41
2018-10-21T05:47:14.274Z,995.44
2018-10-21T05:48:14.205Z,995.44
2018-10-21T05:49:14.227Z,995.44
2018-10-21T05:50:14.256Z,995.41
2018-10-21T05:51:14.284Z,995.42
2018-10-21T05:52:14.396Z,995.45
2018-10-21T05:53:14.336Z,995.45
2018-10-21T05:54:14.362Z,995.49
2018-10-21T05:55:14.389Z,995.51
2018-10-21T05:56:14.418Z,995.52
2018-10-21T05:57:14.442Z,995.54
2018-10-21T05:58:14.550Z,995.49
2018-10-21T05:59:14.497Z,995.49
2018-10-21T06:00:14.547Z,995.52
2018-10-21T06:01:14.553Z,995.54
2018-10-21T06:02:14.582Z,995.57
2018-10-21T06:03:14.611Z,995.58
2018-10-21T06:04:14.721Z,995.56
2018-10-21T06:05:14.659Z,995.58
2018-10-21T06:06:14.688Z,995.59
2018-10-21T06:07:14.714Z,995.56
2018-10-21T06:08:14.743Z,995.61
2018-10-21T06:09:14.769Z,995.58
2018-10-21T06:10:14.927Z,995.61
2018-10-21T06:11:14.822Z,995.62
2018-10-21T06:12:14.849Z,995.65
2018-10-21T06:13:14.875Z,995.65
2018-10-21T06:14:14.903Z,995.67
2018-10-21T06:15:14.928Z,995.71
2018-10-21T06:16:15.049Z,995.74
2018-10-21T06:17:14.984Z,995.76
2018-10-21T06:18:15.015Z,995.8
2018-10-21T06:19:15.037Z,995.83
2018-10-21T06:20:15.066Z,995.84
2018-10-21T06:21:15.094Z,995.83
2018-10-21T06:22:15.196Z,995.84
2018-10-21T06:23:15.146Z,995.86
2018-10-21T06:24:15.174Z,995.87
2018-10-21T06:25:15.202Z,995.86
2018-10-21T06:26:15.228Z,995.9
2018-10-21T06:27:15.255Z,995.88
2018-10-21T06:28:15.281Z,995.92
2018-10-21T06:29:15.309Z,995.94
2018-10-21T06:30:15.336Z,995.92
2018-10-21T06:31:15.430Z,995.91
2018-10-21T06:32:15.391Z,995.91
2018-10-21T06:33:15.520Z,995.9
2018-10-21T06:34:15.446Z,995.92
2018-10-21T06:35:15.473Z,995.93
2018-10-21T06:36:15.504Z,995.87
2018-10-21T06:37:15.527Z,995.9
2018-10-21T06:38:15.555Z,995.87
2018-10-21T06:39:15.727Z,995.88
2018-10-21T06:40:15.604Z,995.87
2018-10-21T06:41:15.634Z,995.87
2018-10-21T06:42:15.662Z,995.87
2018-10-21T06:43:15.684Z,995.85
2018-10-21T06:44:15.714Z,995.85
2018-10-21T06:45:15.871Z,995.84
2018-10-21T06:46:15.767Z,995.84
2018-10-21T06:47:15.794Z,995.82
2018-10-21T06:48:15.868Z,995.81
2018-10-21T06:49:15.847Z,995.82
2018-10-21T06:50:15.875Z,995.82
2018-10-21T06:51:15.930Z,995.85
2018-10-21T06:52:15.928Z,995.85
2018-10-21T06:53:15.956Z,995.87
2018-10-21T06:54:15.984Z,995.83
2018-10-21T06:55:16.012Z,995.82
2018-10-21T06:56:16.094Z,995.87
2018-10-21T06:57:16.208Z,995.85
2018-10-21T06:58:16.090Z,995.9
2018-10-21T06:59:16.118Z,995.9
2018-10-21T07:00:16.145Z,995.91
2018-10-21T07:01:16.174Z,995.87
2018-10-21T07:02:16.203Z,995.91
2018-10-21T07:03:16.225Z,995.91
2018-10-21T07:04:16.314Z,995.95
2018-10-21T07:05:16.286Z,995.89
2018-10-21T07:06:16.308Z,995.92
2018-10-21T07:07:16.333Z,995.92
2018-10-21T07:08:16.360Z,995.95
2018-10-21T07:09:16.386Z,995.96
2018-10-21T07:10:16.520Z,995.95
2018-10-21T07:11:16.441Z,995.98
2018-10-21T07:12:16.468Z,995.95
2018-10-21T07:13:16.496Z,995.96
2018-10-21T07:14:16.524Z,995.96
2018-10-21T07:15:16.617Z,995.9
2018-10-21T07:16:16.766Z,995.92
2018-10-21T07:17:16.602Z,995.93
2018-10-21T07:18:16.630Z,995.96
2018-10-21T07:19:16.659Z,995.95
2018-10-21T07:20:16.683Z,995.93
2018-10-21T07:21:16.713Z,995.92
2018-10-21T07:22:16.824Z,995.95
2018-10-21T07:23:16.764Z,995.96
2018-10-21T07:24:16.794Z,995.98
2018-10-21T07:25:16.820Z,995.98
2018-10-21T07:26:16.847Z,996
2018-10-21T07:27:16.877Z,995.99
2018-10-21T07:28:16.991Z,996
2018-10-21T07:29:16.935Z,995.96
2018-10-21T07:30:16.956Z,996
2018-10-21T07:31:16.981Z,995.96
2018-10-21T07:32:17.009Z,995.96
2018-10-21T07:33:17.036Z,995.97
2018-10-21T07:34:17.180Z,995.96
2018-10-21T07:35:17.092Z,995.94
2018-10-21T07:36:17.210Z,995.95
2018-10-21T07:37:17.144Z,996
2018-10-21T07:38:17.170Z,995.99
2018-10-21T07:39:17.198Z,995.99
2018-10-21T07:40:17.324Z,996
2018-10-21T07:41:17.253Z,996.01
2018-10-21T07:42:17.280Z,996
2018-10-21T07:43:17.306Z,996
2018-10-21T07:44:17.334Z,995.99
2018-10-21T07:45:17.361Z,996
2018-10-21T07:46:17.537Z,996.03
2018-10-21T07:47:17.415Z,996.03
2018-10-21T07:48:17.442Z,996.01
2018-10-21T07:49:17.561Z,996.05
2018-10-21T07:50:17.497Z,996.07
2018-10-21T07:51:17.524Z,996.08
2018-10-21T07:52:17.568Z,996.1
2018-10-21T07:53:17.577Z,996.1
2018-10-21T07:54:17.606Z,996.13
2018-10-21T07:55:17.722Z,996.11
2018-10-21T07:56:17.657Z,996.09
2018-10-21T07:57:17.684Z,996.16
2018-10-21T07:58:17.935Z,996.15
2018-10-21T07:59:17.737Z,996.14
2018-10-21T08:00:17.764Z,996.14
2018-10-21T08:01:17.802Z,996.15
2018-10-21T08:02:17.819Z,996.1
2018-10-21T08:03:17.846Z,996.14
2018-10-21T08:04:17.874Z,996.15
2018-10-21T08:05:17.900Z,996.17
2018-10-21T08:06:17.926Z,996.16
2018-10-21T08:07:17.953Z,996.12
2018-10-21T08:08:17.979Z,996.14
2018-10-21T08:09:18.009Z,996.1
2018-10-21T08:10:18.093Z,996.1
2018-10-21T08:11:18.060Z,996.09
2018-10-21T08:12:18.087Z,996.08
2018-10-21T08:13:18.113Z,996.05
2018-10-21T08:14:18.138Z,996.04
2018-10-21T08:15:18.330Z,996.05
2018-10-21T08:16:18.284Z,996.08
2018-10-21T08:17:18.219Z,996.06
2018-10-21T08:18:18.248Z,996.04
2018-10-21T08:19:18.274Z,996.06
2018-10-21T08:20:18.300Z,996.05
2018-10-21T08:21:18.400Z,996.04
2018-10-21T08:22:18.422Z,996.07
2018-10-21T08:23:18.380Z,996.05
2018-10-21T08:24:18.406Z,996.02
2018-10-21T08:25:18.435Z,996.03
2018-10-21T08:26:18.460Z,996
2018-10-21T08:27:18.756Z,995.98
2018-10-21T08:28:18.704Z,995.96
2018-10-21T08:29:18.540Z,996.01
2018-10-21T08:30:18.565Z,995.99
2018-10-21T08:31:18.596Z,996.02
2018-10-21T08:32:18.619Z,995.97
2018-10-21T08:33:18.645Z,996.03
2018-10-21T08:34:18.806Z,996.03
2018-10-21T08:35:18.702Z,995.97
2018-10-21T08:36:18.773Z,996.02
2018-10-21T08:37:18.752Z,996.05
2018-10-21T08:38:18.777Z,996.02
2018-10-21T08:39:18.807Z,996.07
2018-10-21T08:40:18.831Z,996.07
2018-10-21T08:41:18.857Z,996.06
2018-10-21T08:42:18.883Z,996.02
2018-10-21T08:43:18.909Z,996.03
2018-10-21T08:44:18.939Z,996.01
2018-10-21T08:45:18.964Z,996.01
2018-10-21T08:46:19.125Z,995.98
2018-10-21T08:47:19.062Z,996.01
2018-10-21T08:48:19.046Z,995.97
2018-10-21T08:49:19.202Z,995.95
2018-10-21T08:50:19.095Z,995.95
2018-10-21T08:51:19.120Z,995.97
2018-10-21T08:52:19.149Z,995.98
2018-10-21T08:53:19.174Z,996.01
2018-10-21T08:54:19.202Z,995.98
2018-10-21T08:55:19.226Z,995.94
2018-10-21T08:56:19.254Z,995.96
2018-10-21T08:57:19.283Z,995.95
2018-10-21T08:58:19.306Z,995.97
2018-10-21T08:59:19.331Z,995.93
2018-10-21T09:00:19.359Z,995.93
2018-10-21T09:01:19.386Z,995.91
2018-10-21T09:02:19.411Z,995.9
2018-10-21T09:03:19.438Z,995.92
2018-10-21T09:04:19.467Z,995.93
2018-10-21T09:05:19.491Z,995.95
2018-10-21T09:06:19.517Z,995.93
2018-10-21T09:07:19.544Z,995.95
2018-10-21T09:08:19.570Z,995.92
2018-10-21T09:09:19.596Z,995.95
2018-10-21T09:10:19.778Z,995.9
2018-10-21T09:11:19.650Z,995.89
2018-10-21T09:12:19.679Z,995.91
2018-10-21T09:13:19.702Z,995.93
2018-10-21T09:14:19.729Z,995.93
2018-10-21T09:15:19.769Z,995.91
2018-10-21T09:16:20.012Z,995.92
2018-10-21T09:17:19.811Z,995.93
2018-10-21T09:18:19.835Z,995.91
2018-10-21T09:19:19.867Z,995.95
2018-10-21T09:20:19.890Z,995.96
2018-10-21T09:21:19.915Z,995.94
2018-10-21T09:22:20.049Z,995.98
2018-10-21T09:23:19.968Z,995.99
2018-10-21T09:24:19.994Z,995.95
2018-10-21T09:25:20.153Z,995.95
2018-10-21T09:26:20.050Z,995.93
2018-10-21T09:27:20.075Z,995.93
2018-10-21T09:28:20.104Z,995.95
2018-10-21T09:29:20.128Z,995.98
2018-10-21T09:30:20.154Z,995.94
2018-10-21T09:31:20.182Z,995.96
2018-10-21T09:32:20.208Z,995.9
2018-10-21T09:33:20.280Z,995.9
2018-10-21T09:34:20.417Z,995.9
2018-10-21T09:35:20.287Z,995.89
2018-10-21T09:36:20.316Z,995.9
2018-10-21T09:37:20.340Z,995.88
2018-10-21T09:38:20.367Z,995.88
2018-10-21T09:39:20.394Z,995.87
2018-10-21T09:40:20.555Z,995.89
2018-10-21T09:41:20.448Z,995.87
2018-10-21T09:42:20.613Z,995.88
2018-10-21T09:43:20.500Z,995.88
2018-10-21T09:44:20.527Z,995.91
2018-10-21T09:45:20.554Z,995.87
2018-10-21T09:46:20.580Z,995.86
2018-10-21T09:47:20.607Z,995.89
2018-10-21T09:48:20.636Z,995.88
2018-10-21T09:49:20.666Z,995.91
2018-10-21T09:50:20.686Z,995.9
2018-10-21T09:51:20.718Z,995.89
2018-10-21T09:52:20.745Z,995.86
2018-10-21T09:53:20.770Z,995.85
2018-10-21T09:54:20.791Z,995.86
2018-10-21T09:55:20.826Z,995.82
2018-10-21T09:56:20.868Z,995.84
2018-10-21T09:57:20.871Z,995.83
2018-10-21T09:58:21.043Z,995.82
2018-10-21T09:59:20.926Z,995.84
2018-10-21T10:00:20.959Z,995.86
2018-10-21T10:01:20.981Z,995.77
2018-10-21T10:02:21.007Z,995.82
2018-10-21T10:03:21.033Z,995.8
2018-10-21T10:04:21.164Z,995.74
2018-10-21T10:05:21.192Z,995.7
2018-10-21T10:06:21.112Z,995.69
2018-10-21T10:07:21.139Z,995.66
2018-10-21T10:08:21.166Z,995.65
2018-10-21T10:09:21.197Z,995.67
2018-10-21T10:10:21.220Z,995.63
2018-10-21T10:11:21.247Z,995.64
2018-10-21T10:12:21.271Z,995.65
2018-10-21T10:13:21.300Z,995.66
2018-10-21T10:14:21.323Z,995.64
2018-10-21T10:15:21.350Z,995.69
2018-10-21T10:16:21.376Z,995.72
2018-10-21T10:17:21.405Z,995.7
2018-10-21T10:18:21.432Z,995.67
2018-10-21T10:19:21.458Z,995.71
2018-10-21T10:20:21.487Z,995.67
2018-10-21T10:21:21.510Z,995.66
2018-10-21T10:22:21.536Z,995.68
2018-10-21T10:23:21.652Z,995.65
2018-10-21T10:24:21.592Z,995.65
2018-10-21T10:25:21.616Z,995.64
2018-10-21T10:26:21.642Z,995.56
2018-10-21T10:27:21.668Z,995.63
2018-10-21T10:28:21.696Z,995.62
2018-10-21T10:29:21.722Z,995.6
2018-10-21T10:30:21.763Z,995.62
2018-10-21T10:31:21.775Z,995.59
2018-10-21T10:32:21.802Z,995.61
2018-10-21T10:33:21.826Z,995.59
2018-10-21T10:34:21.854Z,995.59
2018-10-21T10:35:21.882Z,995.6
2018-10-21T10:36:22.111Z,995.55
2018-10-21T10:37:21.933Z,995.55
2018-10-21T10:38:21.960Z,995.54
2018-10-21T10:39:21.991Z,995.57
2018-10-21T10:40:22.014Z,995.56
2018-10-21T10:41:22.040Z,995.55
2018-10-21T10:42:22.124Z,995.53
2018-10-21T10:43:22.095Z,995.51
2018-10-21T10:44:22.119Z,995.51
2018-10-21T10:45:22.147Z,995.51
2018-10-21T10:46:22.175Z,995.46
2018-10-21T10:47:22.199Z,995.43
2018-10-21T10:48:22.226Z,995.42
2018-10-21T10:49:22.253Z,995.4
2018-10-21T10:50:22.283Z,995.39
2018-10-21T10:51:22.307Z,995.4
2018-10-21T10:52:22.334Z,995.34
2018-10-21T10:53:22.360Z,995.35
2018-10-21T10:54:22.387Z,995.34
2018-10-21T10:55:22.416Z,995.31
2018-10-21T10:56:22.438Z,995.29
2018-10-21T10:57:22.469Z,995.3
2018-10-21T10:58:22.493Z,995.27
2018-10-21T10:59:22.520Z,995.29
2018-10-21T11:00:22.545Z,995.3
2018-10-21T11:01:22.575Z,995.28
2018-10-21T11:02:22.599Z,995.26
2018-10-21T11:03:22.626Z,995.22
2018-10-21T11:04:22.652Z,995.26
2018-10-21T11:05:22.679Z,995.22
2018-10-21T11:06:22.776Z,995.23
2018-10-21T11:07:22.731Z,995.2
2018-10-21T11:08:22.762Z,995.2
2018-10-21T11:09:22.786Z,995.2
2018-10-21T11:10:22.813Z,995.19
2018-10-21T11:11:22.839Z,995.2
2018-10-21T11:12:22.866Z,995.15
2018-10-21T11:13:22.893Z,995.16
2018-10-21T11:14:22.920Z,995.14
2018-10-21T11:15:22.947Z,995.14
2018-10-21T11:16:22.980Z,995.12
2018-10-21T11:17:22.999Z,995.13
2018-10-21T11:18:23.025Z,995.09
2018-10-21T11:19:23.053Z,995.08
2018-10-21T11:20:23.079Z,995.08
2018-10-21T11:21:23.105Z,995.07
2018-10-21T11:22:23.239Z,995.08
2018-10-21T11:23:23.161Z,995.02
2018-10-21T11:24:23.187Z,995.03
2018-10-21T11:25:23.213Z,995
2018-10-21T11:26:23.238Z,994.99
2018-10-21T11:27:23.265Z,995
2018-10-21T11:28:23.292Z,994.95
2018-10-21T11:29:23.319Z,994.93
2018-10-21T11:30:23.346Z,994.91
2018-10-21T11:31:23.372Z,994.87
2018-10-21T11:32:23.401Z,994.83
2018-10-21T11:33:23.425Z,994.82
2018-10-21T11:34:23.454Z,994.81
2018-10-21T11:35:23.477Z,994.85
2018-10-21T11:36:23.507Z,994.84
2018-10-21T11:37:23.659Z,994.83
2018-10-21T11:38:23.559Z,994.82
2018-10-21T11:39:23.584Z,994.81
2018-10-21T11:40:23.613Z,994.82
2018-10-21T11:41:23.640Z,994.76
2018-10-21T11:42:23.665Z,994.73
2018-10-21T11:43:23.693Z,994.76
2018-10-21T11:44:23.720Z,994.78
2018-10-21T11:45:23.748Z,994.72
2018-10-21T11:46:23.811Z,994.72
2018-10-21T11:47:23.798Z,994.77
2018-10-21T11:48:23.829Z,994.74
2018-10-21T11:49:23.859Z,994.72
2018-10-21T11:50:23.880Z,994.72
2018-10-21T11:51:23.907Z,994.67
2018-10-21T11:52:23.978Z,994.7
2018-10-21T11:53:23.960Z,994.67
2018-10-21T11:54:23.986Z,994.68
2018-10-21T11:55:24.013Z,994.68
2018-10-21T11:56:24.040Z,994.63
2018-10-21T11:57:24.065Z,994.67
2018-10-21T11:58:24.094Z,994.64
2018-10-21T11:59:24.121Z,994.65
2018-10-21T12:00:24.145Z,994.62
2018-10-21T12:01:24.176Z,994.59
2018-10-21T12:02:24.202Z,994.61
2018-10-21T12:03:24.228Z,994.63
2018-10-21T12:04:24.255Z,994.59
2018-10-21T12:05:24.281Z,994.56
2018-10-21T12:06:24.306Z,994.57
2018-10-21T12:07:24.333Z,994.56
2018-10-21T12:08:24.361Z,994.56
2018-10-21T12:09:24.387Z,994.53
2018-10-21T12:10:24.412Z,994.58
2018-10-21T12:11:24.439Z,994.53
2018-10-21T12:12:24.467Z,994.56
2018-10-21T12:13:24.495Z,994.53
2018-10-21T12:14:24.522Z,994.54
2018-10-21T12:15:24.545Z,994.54
2018-10-21T12:16:24.572Z,994.53
2018-10-21T12:17:24.599Z,994.49
2018-10-21T12:18:24.629Z,994.47
2018-10-21T12:19:24.653Z,994.46
2018-10-21T12:20:24.678Z,994.43
2018-10-21T12:21:24.708Z,994.47
2018-10-21T12:22:24.858Z,994.47
2018-10-21T12:23:24.874Z,994.46
2018-10-21T12:24:24.787Z,994.4
2018-10-21T12:25:24.939Z,994.4
2018-10-21T12:26:24.840Z,994.41
2018-10-21T12:27:24.870Z,994.43
2018-10-21T12:28:24.893Z,994.43
2018-10-21T12:29:24.921Z,994.38
2018-10-21T12:30:24.947Z,994.37
2018-10-21T12:31:24.973Z,994.32
2018-10-21T12:32:25.002Z,994.33